Time;durP1;ratioP1;P1;durP2;ratioP2;P2;SDS_P1;SDS_P2;PMS_P1;PMS_P2;Temp;Humidity;BMP_temperature;BMP_pressure;BME280_temperature;BME280_humidity;BME280_pressure;Samples;Min_cycle;Max_cycle;Signal;HPM_P1;HPM_P2
2021/08/16 00:02:09;;;;;;;11.43;8.15;;;24.00;73.10;;;;;;5015755;28;20037;-79
2021/08/16 00:04:35;;;;;;;10.40;7.68;;;24.00;73.30;;;;;;5015490;28;20056;-81
2021/08/16 00:07:01;;;;;;;11.82;8.25;;;24.00;73.50;;;;;;4998643;28;20479;-80
2021/08/16 00:09:27;;;;;;;14.30;7.93;;;23.90;73.60;;;;;;5016052;28;20064;-80
2021/08/16 00:11:53;;;;;;;10.75;7.97;;;23.90;73.90;;;;;;5016014;28;20112;-80
2021/08/16 00:14:19;;;;;;;10.30;8.32;;;23.90;74.10;;;;;;5015749;28;20038;-80
2021/08/16 00:16:45;;;;;;;11.68;8.63;;;23.90;74.30;;;;;;5016164;28;20046;-80
2021/08/16 00:19:11;;;;;;;12.60;8.70;;;23.90;74.40;;;;;;5015865;28;20476;-81
2021/08/16 00:21:37;;;;;;;9.23;8.23;;;23.80;74.50;;;;;;5016109;28;20076;-80
2021/08/16 00:24:04;;;;;;;11.43;8.85;;;23.80;74.60;;;;;;5015959;28;20069;-80
2021/08/16 00:26:31;;;;;;;11.73;8.25;;;23.80;74.70;;;;;;5015866;28;20022;-81
2021/08/16 00:29:00;;;;;;;10.18;8.02;;;23.80;75.00;;;;;;4998566;28;20065;-81
2021/08/16 00:31:27;;;;;;;10.60;8.15;;;23.80;74.90;;;;;;5015688;28;20030;-83
2021/08/16 00:33:53;;;;;;;15.35;9.13;;;23.80;74.90;;;;;;4981935;28;20030;-81
2021/08/16 00:36:20;;;;;;;9.80;8.80;;;23.70;75.00;;;;;;5015801;28;20045;-80
2021/08/16 00:38:46;;;;;;;13.63;8.77;;;23.70;74.90;;;;;;4981675;28;20034;-83
2021/08/16 00:41:13;;;;;;;12.25;9.07;;;23.70;75.20;;;;;;4998129;28;20096;-84
2021/08/16 00:43:40;;;;;;;10.52;9.40;;;23.60;75.30;;;;;;4998152;28;20563;-82
2021/08/16 00:46:06;;;;;;;12.07;9.30;;;23.60;75.40;;;;;;5014151;28;20030;-82
2021/08/16 00:48:32;;;;;;;13.50;9.02;;;23.60;75.40;;;;;;5015453;28;20500;-83
2021/08/16 00:51:00;;;;;;;12.60;9.70;;;23.60;75.30;;;;;;4997557;28;20511;-82
2021/08/16 00:53:30;;;;;;;12.13;8.90;;;23.60;75.30;;;;;;4981349;28;20034;-83
2021/08/16 00:55:57;;;;;;;13.73;9.77;;;23.50;75.40;;;;;;5015064;28;20391;-81
2021/08/16 00:58:24;;;;;;;9.90;8.90;;;23.50;75.50;;;;;;4997441;28;20037;-81
2021/08/16 01:00:54;;;;;;;10.32;9.23;;;23.50;75.80;;;;;;4997278;28;20026;-81
2021/08/16 01:03:20;;;;;;;12.15;9.65;;;23.50;75.80;;;;;;4980441;28;20057;-81
2021/08/16 01:05:46;;;;;;;13.05;9.20;;;23.50;75.80;;;;;;5014779;28;20117;-81
2021/08/16 01:08:12;;;;;;;16.55;10.02;;;23.50;75.80;;;;;;5014700;28;20084;-81
2021/08/16 01:10:38;;;;;;;12.73;10.02;;;23.50;75.90;;;;;;5014857;28;20492;-81
2021/08/16 01:13:04;;;;;;;12.98;10.15;;;23.50;75.80;;;;;;4997116;28;20057;-81
2021/08/16 01:15:30;;;;;;;15.77;10.20;;;23.50;75.80;;;;;;5014570;28;20121;-81
2021/08/16 01:17:56;;;;;;;13.32;9.93;;;23.50;76.00;;;;;;5014811;28;20091;-81
2021/08/16 01:20:22;;;;;;;11.55;9.23;;;23.50;76.00;;;;;;4980889;28;20120;-81
2021/08/16 01:22:48;;;;;;;12.38;9.55;;;23.40;76.00;;;;;;4997363;28;20034;-81
2021/08/16 01:25:15;;;;;;;11.98;10.38;;;23.40;76.10;;;;;;4996847;28;20033;-81
2021/08/16 01:27:41;;;;;;;14.30;9.68;;;23.40;76.00;;;;;;5014559;28;20067;-81
2021/08/16 01:30:09;;;;;;;12.30;9.27;;;23.40;76.10;;;;;;4996989;28;20037;-81
2021/08/16 01:32:36;;;;;;;12.65;10.20;;;23.30;76.40;;;;;;4980426;28;20084;-82
2021/08/16 01:35:02;;;;;;;11.23;10.02;;;23.30;76.90;;;;;;4997179;28;20069;-82
2021/08/16 01:37:28;;;;;;;11.65;9.43;;;23.30;76.90;;;;;;5014444;28;20065;-82
2021/08/16 01:39:54;;;;;;;12.18;10.05;;;23.20;77.00;;;;;;4996015;28;20040;-84
2021/08/16 01:42:21;;;;;;;13.63;10.35;;;23.20;77.40;;;;;;4977363;28;20034;-83
2021/08/16 01:44:46;;;;;;;12.80;9.82;;;23.20;77.70;;;;;;4977220;28;20500;-83
2021/08/16 01:47:12;;;;;;;15.35;10.55;;;23.10;77.70;;;;;;4976128;28;20038;-84
2021/08/16 01:49:38;;;;;;;12.40;10.43;;;23.10;77.90;;;;;;5014111;28;20033;-83
2021/08/16 01:52:05;;;;;;;12.18;10.38;;;23.00;77.90;;;;;;4996646;28;20168;-83
2021/08/16 01:54:31;;;;;;;14.90;10.38;;;23.00;78.00;;;;;;4996528;28;20052;-83
2021/08/16 01:56:57;;;;;;;12.35;9.75;;;23.00;78.30;;;;;;4996651;28;20029;-85
2021/08/16 01:59:23;;;;;;;15.00;11.25;;;23.00;78.30;;;;;;4996593;28;20032;-84
2021/08/16 02:01:49;;;;;;;11.10;9.98;;;23.00;78.20;;;;;;4980131;28;20137;-84
2021/08/16 02:04:15;;;;;;;20.38;10.15;;;23.00;78.20;;;;;;4995628;28;20435;-85
2021/08/16 02:06:41;;;;;;;10.95;9.23;;;22.90;78.30;;;;;;5013743;28;20034;-85
2021/08/16 02:09:07;;;;;;;11.93;10.50;;;22.90;78.50;;;;;;5013751;28;20440;-85
2021/08/16 02:11:33;;;;;;;11.98;10.15;;;22.90;78.50;;;;;;4980058;28;20033;-85
2021/08/16 02:13:59;;;;;;;15.63;9.82;;;22.90;78.70;;;;;;4996244;28;20058;-82
2021/08/16 02:16:24;;;;;;;10.75;9.55;;;22.90;78.80;;;;;;4996303;28;20045;-82
2021/08/16 02:18:50;;;;;;;12.60;9.88;;;22.90;79.00;;;;;;5013553;28;20041;-82
2021/08/16 02:21:16;;;;;;;12.50;10.20;;;22.90;78.80;;;;;;5013643;28;20068;-82
2021/08/16 02:23:42;;;;;;;11.38;10.18;;;22.90;78.80;;;;;;4995910;28;20048;-83
2021/08/16 02:26:08;;;;;;;13.05;10.35;;;22.90;78.70;;;;;;4995875;28;20041;-83
2021/08/16 02:28:34;;;;;;;15.65;9.80;;;22.90;78.60;;;;;;5013206;28;20084;-83
2021/08/16 02:31:00;;;;;;;13.77;10.55;;;22.90;78.70;;;;;;5013353;28;20041;-84
2021/08/16 02:33:26;;;;;;;14.57;10.55;;;22.90;78.70;;;;;;5011796;28;20036;-86
2021/08/16 02:35:52;;;;;;;14.40;10.82;;;22.90;78.80;;;;;;4995628;28;20407;-85
2021/08/16 02:38:18;;;;;;;12.70;10.68;;;22.90;78.70;;;;;;4995721;28;20045;-84
2021/08/16 02:40:44;;;;;;;21.42;11.63;;;22.90;78.50;;;;;;4995489;28;20073;-83
2021/08/16 02:43:10;;;;;;;16.25;10.80;;;22.90;78.60;;;;;;5013252;28;20052;-84
2021/08/16 02:45:36;;;;;;;13.20;10.70;;;22.90;78.60;;;;;;5013298;28;20124;-84
2021/08/16 02:48:02;;;;;;;15.45;10.73;;;22.90;78.60;;;;;;5013047;28;20042;-84
2021/08/16 02:50:28;;;;;;;14.38;10.77;;;22.90;78.60;;;;;;5013042;28;20503;-84
2021/08/16 02:52:55;;;;;;;17.35;11.57;;;22.90;78.60;;;;;;5013023;28;20030;-84
2021/08/16 02:55:21;;;;;;;14.50;10.48;;;22.90;78.50;;;;;;5013035;28;20030;-85
2021/08/16 02:57:47;;;;;;;12.25;9.73;;;22.90;78.60;;;;;;5013045;28;20464;-84
2021/08/16 03:00:14;;;;;;;15.48;10.73;;;22.90;78.60;;;;;;5012929;28;20037;-82
2021/08/16 03:02:42;;;;;;;16.85;10.82;;;22.90;78.50;;;;;;5012671;28;20095;-82
2021/08/16 03:05:09;;;;;;;13.45;10.48;;;22.90;78.70;;;;;;4994751;28;20464;-82
2021/08/16 03:07:35;;;;;;;13.10;10.90;;;22.90;78.80;;;;;;5012855;28;20051;-82
2021/08/16 03:10:01;;;;;;;15.23;10.98;;;22.90;78.90;;;;;;4992806;28;20038;-81
2021/08/16 03:12:27;;;;;;;17.33;10.75;;;23.00;79.00;;;;;;4991976;28;20125;-82
2021/08/16 03:14:53;;;;;;;18.38;10.63;;;23.00;78.90;;;;;;4991914;28;20133;-82
2021/08/16 03:17:19;;;;;;;15.27;10.85;;;23.00;78.80;;;;;;5010334;28;20038;-82
2021/08/16 03:19:45;;;;;;;13.68;10.98;;;23.00;79.60;;;;;;5012204;28;20048;-82
2021/08/16 03:22:10;;;;;;;15.93;11.13;;;23.00;79.00;;;;;;4995165;28;20033;-84
2021/08/16 03:24:37;;;;;;;16.73;11.77;;;23.00;79.10;;;;;;5013028;28;20128;-84
2021/08/16 03:27:03;;;;;;;15.50;11.73;;;23.00;79.00;;;;;;4978344;28;20436;-84
2021/08/16 03:29:29;;;;;;;14.95;10.75;;;23.00;78.90;;;;;;5021520;28;20029;-83
2021/08/16 03:31:55;;;;;;;17.33;12.00;;;22.90;79.00;;;;;;4999089;28;20479;-82
2021/08/16 03:34:21;;;;;;;12.40;11.10;;;22.90;79.00;;;;;;5003232;28;20044;-82
2021/08/16 03:36:46;;;;;;;13.98;10.95;;;23.00;79.20;;;;;;5013411;28;20037;-83
2021/08/16 03:39:12;;;;;;;13.02;10.88;;;23.00;79.10;;;;;;5003321;28;20125;-83
2021/08/16 03:41:38;;;;;;;16.30;11.38;;;23.00;79.30;;;;;;5017808;28;20033;-82
2021/08/16 03:44:04;;;;;;;20.90;10.82;;;23.00;79.20;;;;;;5023318;28;20423;-84
2021/08/16 03:46:30;;;;;;;14.05;11.07;;;23.10;79.30;;;;;;5004523;28;20037;-84
2021/08/16 03:48:56;;;;;;;19.60;11.77;;;23.10;79.40;;;;;;4997796;28;20036;-79
2021/08/16 03:51:22;;;;;;;14.07;10.95;;;23.10;79.30;;;;;;5020603;28;20041;-80
2021/08/16 03:53:48;;;;;;;14.43;11.93;;;23.20;79.00;;;;;;5015652;28;20506;-79
2021/08/16 03:56:14;;;;;;;15.95;11.73;;;23.20;78.90;;;;;;5020155;28;20603;-77
2021/08/16 03:58:41;;;;;;;17.63;12.00;;;23.20;79.00;;;;;;5019947;28;20026;-78
2021/08/16 04:01:11;;;;;;;18.20;11.85;;;23.20;79.00;;;;;;5016991;28;20026;-78
2021/08/16 04:03:41;;;;;;;14.38;11.90;;;23.20;79.00;;;;;;5020490;28;20112;-81
2021/08/16 04:06:07;;;;;;;15.60;11.43;;;23.20;78.90;;;;;;5017368;28;20025;-78
2021/08/16 04:08:33;;;;;;;16.80;12.02;;;23.20;79.00;;;;;;4995654;28;20119;-79
2021/08/16 04:11:00;;;;;;;16.40;11.43;;;23.30;79.10;;;;;;5019922;28;20113;-78
2021/08/16 04:13:26;;;;;;;18.08;11.65;;;23.30;79.00;;;;;;5020985;28;20033;-79
2021/08/16 04:15:52;;;;;;;16.77;11.82;;;23.30;79.00;;;;;;5020029;28;20036;-78
2021/08/16 04:18:18;;;;;;;15.55;11.02;;;23.30;79.10;;;;;;5020945;28;20385;-78
2021/08/16 04:20:44;;;;;;;19.67;11.10;;;23.30;79.00;;;;;;5019828;28;20034;-78
2021/08/16 04:23:10;;;;;;;18.80;13.02;;;23.50;79.10;;;;;;5023238;28;20041;-78
2021/08/16 04:25:36;;;;;;;17.70;11.30;;;23.60;78.90;;;;;;5018461;28;20038;-77
2021/08/16 04:28:02;;;;;;;14.80;11.13;;;23.90;78.50;;;;;;4998890;28;20125;-78
2021/08/16 04:30:28;;;;;;;15.60;10.52;;;24.20;77.90;;;;;;5014362;28;20048;-78
2021/08/16 04:32:54;;;;;;;13.57;10.27;;;24.50;77.10;;;;;;5015375;28;20100;-78
2021/08/16 04:35:20;;;;;;;13.73;9.70;;;24.80;76.60;;;;;;5014732;28;20444;-78
2021/08/16 04:37:47;;;;;;;17.67;10.90;;;25.10;76.00;;;;;;5014425;28;20038;-78
2021/08/16 04:40:14;;;;;;;19.23;11.80;;;25.20;74.90;;;;;;4981249;28;20080;-78
2021/08/16 04:42:40;;;;;;;17.10;9.85;;;25.30;74.50;;;;;;5014715;28;20045;-78
2021/08/16 04:45:09;;;;;;;19.52;11.75;;;25.40;74.30;;;;;;5016315;28;20121;-85
2021/08/16 04:47:36;;;;;;;18.35;11.52;;;25.50;73.80;;;;;;4981505;28;20488;-83
2021/08/16 04:50:03;;;;;;;19.48;11.60;;;25.60;73.50;;;;;;5000589;28;20065;-81
2021/08/16 04:52:29;;;;;;;17.25;11.23;;;25.90;73.20;;;;;;5000809;28;20579;-80
2021/08/16 04:54:55;;;;;;;14.30;10.18;;;26.00;72.70;;;;;;5017015;28;20057;-80
2021/08/16 04:57:32;;;;;;;13.85;9.10;;;26.20;72.60;;;;;;5017055;28;20460;-81
2021/08/16 04:59:58;;;;;;;16.52;11.00;;;26.30;72.30;;;;;;5003210;28;20036;-81
2021/08/16 05:02:24;;;;;;;14.93;10.50;;;26.40;71.70;;;;;;5014542;28;20129;-80
2021/08/16 05:04:55;;;;;;;18.85;10.68;;;26.50;71.70;;;;;;4997244;28;20137;-79
2021/08/16 05:07:21;;;;;;;13.65;10.38;;;26.50;71.10;;;;;;5014418;28;20053;-79
2021/08/16 05:09:49;;;;;;;18.27;10.45;;;26.50;71.00;;;;;;4997044;28;20164;-80
2021/08/16 05:12:15;;;;;;;17.40;9.98;;;26.50;70.80;;;;;;5014864;28;20076;-78
2021/08/16 05:14:41;;;;;;;15.57;9.20;;;26.50;71.10;;;;;;4997120;28;20129;-78
2021/08/16 05:17:07;;;;;;;16.33;9.15;;;26.60;71.30;;;;;;5014476;28;20038;-79
2021/08/16 05:19:37;;;;;;;14.13;9.10;;;26.70;71.20;;;;;;4997116;28;20182;-79
2021/08/16 05:22:09;;;;;;;15.80;9.50;;;26.90;70.90;;;;;;4996144;28;20041;-80
2021/08/16 05:24:35;;;;;;;16.13;10.80;;;26.90;70.80;;;;;;5013567;28;20538;-80
2021/08/16 05:27:02;;;;;;;14.55;10.02;;;27.00;71.00;;;;;;5013738;28;20121;-79
2021/08/16 05:29:29;;;;;;;11.48;9.07;;;27.10;69.70;;;;;;5014265;28;20033;-78
2021/08/16 05:31:55;;;;;;;10.40;8.32;;;27.30;69.70;;;;;;4996241;28;20080;-79
2021/08/16 05:34:21;;;;;;;10.07;8.45;;;27.40;69.20;;;;;;5014393;28;20464;-77
2021/08/16 05:36:47;;;;;;;11.40;8.20;;;27.70;68.70;;;;;;5013874;28;20038;-82
2021/08/16 05:39:13;;;;;;;13.50;8.48;;;27.80;68.40;;;;;;4996721;28;20437;-81
2021/08/16 05:41:39;;;;;;;11.43;8.52;;;27.80;68.40;;;;;;4997010;28;20038;-82
2021/08/16 05:44:05;;;;;;;11.27;7.65;;;28.00;68.00;;;;;;4980734;28;20064;-82
2021/08/16 05:46:30;;;;;;;11.30;8.20;;;28.10;67.80;;;;;;4996314;28;20068;-81
2021/08/16 05:48:56;;;;;;;10.23;8.05;;;28.20;67.30;;;;;;4996535;28;20030;-81
2021/08/16 05:51:22;;;;;;;15.18;8.65;;;28.30;67.00;;;;;;4996612;28;20048;-81
2021/08/16 05:53:48;;;;;;;11.07;7.70;;;28.40;66.40;;;;;;4980373;28;20061;-82
2021/08/16 05:56:14;;;;;;;8.93;7.35;;;28.60;66.40;;;;;;5014226;28;20041;-81
2021/08/16 05:58:40;;;;;;;9.55;7.40;;;28.70;66.20;;;;;;4996454;28;20037;-81
2021/08/16 06:01:06;;;;;;;10.60;7.22;;;28.90;66.00;;;;;;4976400;28;20397;-81
2021/08/16 06:03:31;;;;;;;8.48;6.90;;;29.00;65.80;;;;;;5013800;28;20103;-80
2021/08/16 06:05:57;;;;;;;10.68;7.53;;;29.10;65.60;;;;;;5015810;28;20061;-81
2021/08/16 06:08:23;;;;;;;8.60;7.30;;;29.20;65.30;;;;;;5025240;28;20307;-81
2021/08/16 06:10:49;;;;;;;10.70;7.10;;;29.30;65.20;;;;;;5013723;28;20033;-82
2021/08/16 06:13:15;;;;;;;8.85;6.63;;;29.40;65.00;;;;;;4979851;28;20048;-81
2021/08/16 06:15:41;;;;;;;11.45;6.97;;;29.40;64.70;;;;;;4996062;28;20096;-81
2021/08/16 06:18:07;;;;;;;9.27;7.20;;;29.50;64.50;;;;;;5013564;28;20085;-81
2021/08/16 06:20:33;;;;;;;11.60;7.03;;;29.60;64.50;;;;;;5004084;28;20492;-78
2021/08/16 06:22:59;;;;;;;9.15;7.15;;;29.70;64.30;;;;;;5014519;28;20033;-78
2021/08/16 06:25:25;;;;;;;12.50;6.95;;;29.70;64.10;;;;;;5012627;28;20384;-78
2021/08/16 06:27:51;;;;;;;14.05;7.40;;;29.80;64.00;;;;;;4995736;28;20135;-78
2021/08/16 06:30:17;;;;;;;9.73;6.80;;;29.80;63.70;;;;;;5013628;28;20377;-81
2021/08/16 06:32:43;;;;;;;10.98;6.70;;;29.90;63.80;;;;;;5013691;28;20038;-82
2021/08/16 06:35:09;;;;;;;11.05;6.65;;;29.90;63.50;;;;;;5013090;28;20120;-82
2021/08/16 06:37:35;;;;;;;10.55;6.72;;;29.90;63.40;;;;;;5013232;28;20041;-82
2021/08/16 06:40:01;;;;;;;8.38;6.18;;;30.00;63.50;;;;;;5013495;28;20034;-89
2021/08/16 06:42:29;;;;;;;9.70;6.63;;;30.00;63.40;;;;;;5015991;28;20034;-96
2021/08/16 06:44:56;;;;;;;9.77;6.25;;;30.00;63.00;;;;;;4997753;28;20116;-92
2021/08/16 06:47:21;;;;;;;8.15;6.40;;;30.00;61.70;;;;;;5014336;28;20060;-91
2021/08/16 06:49:47;;;;;;;9.65;6.95;;;29.90;61.90;;;;;;4997458;28;20516;-87
2021/08/16 06:52:14;;;;;;;9.68;6.65;;;29.90;62.80;;;;;;5013698;28;20048;-91
2021/08/16 06:54:40;;;;;;;10.60;7.00;;;30.00;62.90;;;;;;4998353;28;20484;-94
2021/08/16 06:57:06;;;;;;;7.82;6.63;;;30.00;63.20;;;;;;5000401;28;20088;-94
2021/08/16 06:59:34;;;;;;;9.13;6.80;;;30.00;63.40;;;;;;5007370;28;20040;-92
2021/08/16 07:02:00;;;;;;;11.15;6.75;;;29.90;63.40;;;;;;5007629;28;20042;-89
2021/08/16 07:04:30;;;;;;;9.98;7.15;;;29.90;63.50;;;;;;4998667;28;20092;-96
2021/08/16 07:06:56;;;;;;;12.13;7.50;;;29.90;63.40;;;;;;4998468;28;20022;-83
2021/08/16 07:09:22;;;;;;;10.10;6.78;;;29.80;63.80;;;;;;5013507;28;20543;-83
2021/08/16 07:11:48;;;;;;;9.60;6.63;;;29.90;64.10;;;;;;5013200;28;20045;-86
2021/08/16 07:14:14;;;;;;;9.07;7.00;;;29.90;64.20;;;;;;5022547;28;20036;-85
2021/08/16 07:16:40;;;;;;;11.05;7.20;;;29.90;64.30;;;;;;4976899;28;20124;-87
2021/08/16 07:19:06;;;;;;;10.90;6.32;;;29.90;64.20;;;;;;4993908;28;20116;-93
2021/08/16 07:21:32;;;;;;;10.90;6.88;;;29.90;64.20;;;;;;4978707;28;20120;-84
2021/08/16 07:23:58;;;;;;;10.07;6.53;;;30.00;64.30;;;;;;5013174;28;20048;-87
2021/08/16 07:26:24;;;;;;;9.80;6.75;;;30.00;64.20;;;;;;5015232;28;20034;-92
2021/08/16 07:28:50;;;;;;;7.78;6.50;;;30.10;64.30;;;;;;4994953;28;20429;-86
2021/08/16 07:31:16;;;;;;;11.85;6.10;;;30.10;64.20;;;;;;5013489;28;20041;-95
2021/08/16 07:33:42;;;;;;;8.43;6.60;;;30.10;63.30;;;;;;4996586;28;20038;-92
2021/08/16 07:36:17;;;;;;;11.70;6.40;;;30.10;63.50;;;;;;4996734;28;20034;-94
2021/08/16 07:38:43;;;;;;;9.20;6.15;;;30.10;63.30;;;;;;5014144;28;20044;-88
2021/08/16 07:41:09;;;;;;;10.43;6.60;;;30.10;63.20;;;;;;5013946;28;20475;-87
2021/08/16 07:43:35;;;;;;;8.00;5.88;;;30.10;61.90;;;;;;4995578;28;20044;-90
2021/08/16 07:46:01;;;;;;;8.00;6.30;;;30.00;60.00;;;;;;5013775;28;20038;-90
2021/08/16 07:48:27;;;;;;;9.77;6.63;;;30.00;61.40;;;;;;5018117;28;20061;-91
2021/08/16 07:50:53;;;;;;;9.02;5.78;;;30.00;60.80;;;;;;5016714;28;20048;-88
2021/08/16 07:53:19;;;;;;;8.30;5.47;;;29.90;61.90;;;;;;5014470;28;20034;-88
2021/08/16 07:55:44;;;;;;;8.98;5.55;;;29.90;61.60;;;;;;5014381;28;20034;-88
2021/08/16 07:58:11;;;;;;;11.73;6.00;;;29.80;61.60;;;;;;5016529;28;20033;-91
2021/08/16 08:00:36;;;;;;;8.05;6.10;;;29.80;61.90;;;;;;5002271;28;20037;-93
2021/08/16 08:03:02;;;;;;;8.52;5.88;;;29.70;63.20;;;;;;4998784;28;20440;-93
2021/08/16 08:05:28;;;;;;;9.18;5.50;;;29.60;62.30;;;;;;4999869;28;20041;-86
2021/08/16 08:07:54;;;;;;;6.47;5.63;;;29.60;64.70;;;;;;4998191;28;20049;-87
2021/08/16 08:10:21;;;;;;;7.68;5.72;;;29.60;65.00;;;;;;5000140;28;20504;-86
2021/08/16 08:12:49;;;;;;;6.43;5.45;;;29.50;64.00;;;;;;5020551;28;20038;-89
2021/08/16 08:15:15;;;;;;;6.38;5.75;;;29.40;64.90;;;;;;5003172;28;20037;-84
2021/08/16 08:17:41;;;;;;;8.10;5.60;;;29.40;65.50;;;;;;5013318;28;20040;-87
2021/08/16 08:20:08;;;;;;;9.55;5.63;;;29.30;65.90;;;;;;5001653;28;20137;-88
2021/08/16 08:22:35;;;;;;;12.00;5.18;;;29.30;66.10;;;;;;4986524;28;20034;-86
2021/08/16 08:25:01;;;;;;;7.72;5.45;;;29.20;60.20;;;;;;5019549;28;20120;-84
2021/08/16 08:27:27;;;;;;;7.97;5.40;;;29.10;63.90;;;;;;5020398;28;20125;-85
2021/08/16 08:29:53;;;;;;;8.95;5.53;;;29.10;64.40;;;;;;5020762;28;20045;-86
2021/08/16 08:32:19;;;;;;;13.15;6.00;;;29.10;64.80;;;;;;4985978;28;20030;-87
2021/08/16 08:34:45;;;;;;;6.90;5.65;;;29.00;64.70;;;;;;5020026;28;20056;-86
2021/08/16 08:37:13;;;;;;;8.65;5.70;;;28.90;61.80;;;;;;5000348;28;20678;-87
2021/08/16 08:39:46;;;;;;;8.10;5.15;;;28.90;64.70;;;;;;4998771;28;20038;-88
2021/08/16 08:42:13;;;;;;;10.07;5.28;;;28.80;61.80;;;;;;5016963;28;20469;-89
2021/08/16 08:44:40;;;;;;;9.20;5.07;;;28.80;60.30;;;;;;4999509;28;20029;-89
2021/08/16 08:47:07;;;;;;;13.10;5.70;;;28.80;62.20;;;;;;4997120;28;20500;-89
2021/08/16 08:49:33;;;;;;;9.05;5.38;;;28.80;64.60;;;;;;4997687;28;20038;-88
2021/08/16 08:52:00;;;;;;;9.57;5.55;;;28.70;64.50;;;;;;5015451;28;20037;-84
2021/08/16 08:54:29;;;;;;;7.88;5.13;;;28.70;64.50;;;;;;4997534;28;20043;-87
2021/08/16 08:56:56;;;;;;;7.57;5.57;;;28.70;64.10;;;;;;5019010;28;20088;-88
2021/08/16 08:59:23;;;;;;;7.88;5.03;;;28.70;64.10;;;;;;5017371;28;20120;-89
2021/08/16 09:01:58;;;;;;;9.40;5.30;;;28.70;64.90;;;;;;5000613;28;20026;-86
2021/08/16 09:04:25;;;;;;;9.85;5.45;;;28.60;62.80;;;;;;4998416;28;20054;-91
2021/08/16 09:06:51;;;;;;;7.82;4.90;;;28.60;64.40;;;;;;4998895;28;20049;-88
2021/08/16 09:09:17;;;;;;;9.02;5.22;;;28.60;65.90;;;;;;5001825;28;20053;-86
2021/08/16 09:11:49;;;;;;;7.93;5.32;;;28.60;66.30;;;;;;4965153;28;20424;-89
2021/08/16 09:14:15;;;;;;;9.30;4.93;;;28.60;67.30;;;;;;4982471;28;20057;-94
2021/08/16 09:16:44;;;;;;;6.95;5.05;;;28.50;66.10;;;;;;5002327;28;20034;-93
2021/08/16 09:19:24;;;;;;;9.00;5.65;;;28.50;66.90;;;;;;5003258;28;20053;-96
2021/08/16 09:22:17;;;;;;;7.03;5.53;;;28.50;65.40;;;;;;5002128;28;20037;-92
2021/08/16 09:24:41;;;;;;;7.50;5.70;;;28.50;67.10;;;;;;4983834;28;20049;-95
2021/08/16 09:27:12;;;;;;;9.80;5.82;;;28.50;68.30;;;;;;5016200;28;20046;-92
2021/08/16 09:29:51;;;;;;;7.53;5.78;;;28.50;65.00;;;;;;5016552;28;20038;-93
2021/08/16 09:32:20;;;;;;;9.23;5.75;;;28.50;67.40;;;;;;5014959;28;20037;-83
2021/08/16 09:34:48;;;;;;;8.15;5.75;;;28.40;66.90;;;;;;5014831;28;20041;-82
2021/08/16 09:37:21;;;;;;;7.40;5.65;;;28.40;67.10;;;;;;5014201;28;20053;-83
2021/08/16 09:40:07;;;;;;;7.50;5.50;;;28.40;68.50;;;;;;5014657;28;20033;-82
2021/08/16 09:43:01;;;;;;;8.10;5.95;;;28.40;68.50;;;;;;5013829;28;20037;-81
2021/08/16 09:45:37;;;;;;;11.10;6.10;;;28.40;69.00;;;;;;4977306;28;20467;-83
2021/08/16 09:48:06;;;;;;;8.95;5.63;;;28.40;68.90;;;;;;4997348;28;20042;-84
2021/08/16 09:50:41;;;;;;;7.63;6.10;;;28.40;69.00;;;;;;4997063;28;20034;-83
2021/08/16 09:53:12;;;;;;;9.07;5.60;;;28.30;69.20;;;;;;4996679;28;20034;-81
2021/08/16 09:55:40;;;;;;;9.95;6.10;;;28.30;69.10;;;;;;5015166;28;20092;-80
2021/08/16 09:58:14;;;;;;;7.63;5.60;;;28.30;68.90;;;;;;4996673;28;20496;-88
2021/08/16 10:00:51;;;;;;;8.13;5.13;;;28.30;68.50;;;;;;5017986;28;20113;-87
2021/08/16 10:03:17;;;;;;;10.25;5.72;;;28.30;67.80;;;;;;5018877;28;20049;-90
2021/08/16 10:05:49;;;;;;;7.80;5.07;;;28.20;67.00;;;;;;5019161;28;20041;-89
2021/08/16 10:08:22;;;;;;;12.82;5.60;;;28.30;67.20;;;;;;4997653;28;20049;-92
2021/08/16 10:10:51;;;;;;;6.90;4.90;;;28.30;66.90;;;;;;4996489;28;20038;-83
2021/08/16 10:13:21;;;;;;;9.10;5.65;;;28.30;67.30;;;;;;5015478;28;20037;-90
2021/08/16 10:15:50;;;;;;;7.97;5.20;;;28.30;66.80;;;;;;4998800;28;20430;-92
2021/08/16 10:18:23;;;;;;;7.18;5.25;;;28.30;67.50;;;;;;4998475;28;20065;-94
2021/08/16 10:20:58;;;;;;;7.78;5.43;;;28.30;67.40;;;;;;4995729;28;20033;-96
2021/08/16 10:23:26;;;;;;;9.60;5.20;;;28.30;66.20;;;;;;5003041;28;20455;-89
2021/08/16 10:25:54;;;;;;;13.45;6.07;;;28.30;66.50;;;;;;5013917;28;20034;-89
2021/08/16 10:28:32;;;;;;;7.15;5.22;;;28.30;67.80;;;;;;4995949;28;20034;-87
2021/08/16 10:31:00;;;;;;;8.35;5.65;;;28.20;68.60;;;;;;4987277;28;20033;-92
2021/08/16 10:33:27;;;;;;;12.20;4.68;;;28.20;68.90;;;;;;4988520;28;20034;-86
2021/08/16 10:35:57;;;;;;;6.70;5.55;;;28.20;68.70;;;;;;4978287;28;20409;-89
2021/08/16 10:38:25;;;;;;;6.75;5.40;;;28.20;68.50;;;;;;5011497;28;20072;-88
2021/08/16 10:40:53;;;;;;;7.65;5.55;;;28.20;68.20;;;;;;5007989;28;20030;-91
2021/08/16 10:43:20;;;;;;;5.75;5.00;;;28.20;67.80;;;;;;5013756;28;20051;-87
2021/08/16 10:45:48;;;;;;;6.20;5.03;;;28.20;67.50;;;;;;4998853;28;20486;-96
2021/08/16 10:48:34;;;;;;;6.43;4.80;;;28.20;67.50;;;;;;4995657;28;20049;-81
2021/08/16 10:51:09;;;;;;;9.80;4.97;;;28.20;64.70;;;;;;4995616;28;20038;-83
2021/08/16 10:53:47;;;;;;;8.68;4.60;;;28.20;65.40;;;;;;5012625;28;20400;-82
2021/08/16 10:56:24;;;;;;;7.13;4.57;;;28.20;67.10;;;;;;4994719;28;20038;-82
2021/08/16 10:58:51;;;;;;;5.80;4.55;;;28.20;67.20;;;;;;4992493;28;20088;-81
2021/08/16 11:01:35;;;;;;;7.25;4.80;;;28.20;67.40;;;;;;5012097;28;20061;-83
2021/08/16 11:04:06;;;;;;;9.18;4.38;;;28.20;66.70;;;;;;4994243;28;20046;-87
2021/08/16 11:06:32;;;;;;;7.22;5.15;;;28.20;66.50;;;;;;5020634;28;20079;-84
2021/08/16 11:09:00;;;;;;;8.85;4.68;;;28.20;67.60;;;;;;4999458;28;20029;-86
2021/08/16 11:11:29;;;;;;;7.40;4.78;;;28.20;68.00;;;;;;4994837;28;20030;-88
2021/08/16 11:14:06;;;;;;;5.20;4.55;;;28.20;67.40;;;;;;4995360;28;20568;-88
2021/08/16 11:16:32;;;;;;;5.60;4.65;;;28.20;67.90;;;;;;4981172;28;20030;-91
2021/08/16 11:18:58;;;;;;;5.63;4.82;;;28.20;67.90;;;;;;4982774;28;20045;-89
2021/08/16 11:21:26;;;;;;;7.90;4.93;;;28.20;67.60;;;;;;4996674;28;20030;-89
2021/08/16 11:23:59;;;;;;;8.02;4.88;;;28.20;68.60;;;;;;4996830;28;20038;-91
2021/08/16 11:26:29;;;;;;;7.20;4.97;;;28.20;68.80;;;;;;4980028;28;20030;-91
2021/08/16 11:29:07;;;;;;;5.13;4.63;;;28.20;69.40;;;;;;4994744;28;20069;-86
2021/08/16 11:31:33;;;;;;;5.60;5.10;;;28.20;69.30;;;;;;5012295;28;20583;-86
2021/08/16 11:34:06;;;;;;;7.72;4.78;;;28.20;67.20;;;;;;4982723;28;20461;-89
2021/08/16 11:36:34;;;;;;;5.28;4.30;;;28.10;64.30;;;;;;5003633;28;20034;-89
2021/08/16 11:39:00;;;;;;;6.93;4.90;;;28.20;65.40;;;;;;5000539;28;20034;-87
2021/08/16 11:41:30;;;;;;;9.25;4.68;;;28.10;65.00;;;;;;5016919;28;20504;-88
2021/08/16 11:43:57;;;;;;;8.50;4.95;;;28.10;64.80;;;;;;4992715;28;20117;-84
2021/08/16 11:46:23;;;;;;;7.85;5.00;;;28.10;64.80;;;;;;4996703;28;20180;-87
2021/08/16 11:48:53;;;;;;;6.78;4.40;;;28.10;66.70;;;;;;4977044;28;20022;-84
2021/08/16 11:51:20;;;;;;;6.45;4.90;;;28.10;67.90;;;;;;5008923;28;20121;-85
2021/08/16 11:53:48;;;;;;;7.32;4.70;;;28.10;69.10;;;;;;5006899;28;20084;-88
2021/08/16 11:56:14;;;;;;;8.82;4.80;;;28.20;69.70;;;;;;4979909;28;20022;-89
2021/08/16 11:58:43;;;;;;;6.78;4.68;;;28.10;69.40;;;;;;4997789;28;20052;-88
2021/08/16 12:01:10;;;;;;;7.38;4.70;;;28.10;70.40;;;;;;4991942;28;20036;-86
2021/08/16 12:03:37;;;;;;;6.18;4.80;;;28.20;71.00;;;;;;5008869;28;20080;-85
2021/08/16 12:06:04;;;;;;;7.70;5.28;;;28.20;71.00;;;;;;4995625;28;20120;-85
2021/08/16 12:08:32;;;;;;;6.32;4.95;;;28.10;69.70;;;;;;5006751;28;20654;-86
2021/08/16 12:10:59;;;;;;;6.43;5.13;;;28.20;69.60;;;;;;4999655;28;20056;-85
2021/08/16 12:13:25;;;;;;;4.97;4.40;;;28.20;68.60;;;;;;5001931;28;20176;-88
2021/08/16 12:15:52;;;;;;;5.57;4.97;;;28.10;63.20;;;;;;5019855;28;20084;-93
2021/08/16 12:18:28;;;;;;;5.97;4.65;;;28.10;67.10;;;;;;4998485;28;20073;-94
2021/08/16 12:20:55;;;;;;;5.65;4.93;;;28.10;69.30;;;;;;5002501;28;20030;-89
2021/08/16 12:23:28;;;;;;;6.93;4.90;;;28.10;68.30;;;;;;4998882;28;20040;-86
2021/08/16 12:25:54;;;;;;;5.55;4.65;;;28.10;68.70;;;;;;4997393;28;20044;-86
2021/08/16 12:28:20;;;;;;;5.38;4.88;;;28.10;68.80;;;;;;5153635;23;20025;-95
2021/08/16 12:30:47;;;;;;;6.68;4.60;;;28.10;68.80;;;;;;5047083;22;20047;-93
2021/08/16 12:33:18;;;;;;;6.38;4.75;;;28.10;68.10;;;;;;4981259;28;20039;-93
2021/08/16 12:35:59;;;;;;;6.82;4.68;;;28.10;68.40;;;;;;4994634;28;20077;-88
2021/08/16 12:38:29;;;;;;;5.75;4.50;;;28.10;68.40;;;;;;4995001;28;20034;-88
2021/08/16 12:41:05;;;;;;;9.32;4.60;;;28.10;68.20;;;;;;4977946;28;20034;-89